Terminal Aerodrome Forecast
Issued by NWS Memphis, TN

Home | Current Version | Previous Version | Text Only | Print | Product List | Glossary On
Versions: 1 2 3 4 5 6 7 8 9 10 11 12 13 14
000
FTUS44 KMEG 270520
TAFMKL
TAF
KMKL 270520Z 2706/2806 01003KT P6SM FEW150 SCT250
     FM271000 VRB01KT 4SM BR VCTS BKN050CB
     FM271500 VRB03KT P6SM VCTS OVC050CB
     FM271900 15005KT P6SM -TSRA OVC050CB
      TEMPO 2720/2724 4SM -TSRA OVC025CB
     FM280100 VRB03KT 4SM -TSRA BR OVC025CB=

USA.gov is the U.S. government's official web portal to all federal, state and local government web resources and services.